sensor_id;sensor_type;location;lat;lon;timestamp;temperature;humidity
65770;DHT22;52512;47.650;8.578;2023-05-19T00:01:10;12.00;99.90
65770;DHT22;52512;47.650;8.578;2023-05-19T00:03:40;11.90;99.90
65770;DHT22;52512;47.650;8.578;2023-05-19T00:06:13;11.90;99.90
65770;DHT22;52512;47.650;8.578;2023-05-19T00:08:39;11.90;99.90
65770;DHT22;52512;47.650;8.578;2023-05-19T00:11:05;11.90;99.90
65770;DHT22;52512;47.650;8.578;2023-05-19T00:13:31;11.90;99.90
65770;DHT22;52512;47.650;8.578;2023-05-19T00:15:57;11.90;99.90
65770;DHT22;52512;47.650;8.578;2023-05-19T00:18:23;11.90;99.90
65770;DHT22;52512;47.650;8.578;2023-05-19T00:20:49;11.80;99.90
65770;DHT22;52512;47.650;8.578;2023-05-19T00:23:16;11.80;99.90
65770;DHT22;52512;47.650;8.578;2023-05-19T00:25:42;11.80;99.90
65770;DHT22;52512;47.650;8.578;2023-05-19T00:28:07;11.80;99.90
65770;DHT22;52512;47.650;8.578;2023-05-19T00:30:33;11.80;99.90
65770;DHT22;52512;47.650;8.578;2023-05-19T00:32:59;11.80;99.90
65770;DHT22;52512;47.650;8.578;2023-05-19T00:35:24;11.80;99.90
65770;DHT22;52512;47.650;8.578;2023-05-19T00:37:50;11.80;99.90
65770;DHT22;52512;47.650;8.578;2023-05-19T00:40:16;11.80;99.90
65770;DHT22;52512;47.650;8.578;2023-05-19T00:42:41;11.70;99.90
65770;DHT22;52512;47.650;8.578;2023-05-19T00:45:07;11.70;99.90
65770;DHT22;52512;47.650;8.578;2023-05-19T00:47:33;11.70;99.90
65770;DHT22;52512;47.650;8.578;2023-05-19T00:49:59;11.70;99.90
65770;DHT22;52512;47.650;8.578;2023-05-19T00:52:26;11.70;99.90
65770;DHT22;52512;47.650;8.578;2023-05-19T00:54:52;11.70;99.90
65770;DHT22;52512;47.650;8.578;2023-05-19T00:57:19;11.60;99.90
65770;DHT22;52512;47.650;8.578;2023-05-19T00:59:46;11.60;99.90
65770;DHT22;52512;47.650;8.578;2023-05-19T01:02:12;11.60;99.90
65770;DHT22;52512;47.650;8.578;2023-05-19T01:04:39;11.60;99.90
65770;DHT22;52512;47.650;8.578;2023-05-19T01:07:06;11.60;99.90
65770;DHT22;52512;47.650;8.578;2023-05-19T01:09:32;11.60;99.90
65770;DHT22;52512;47.650;8.578;2023-05-19T01:11:59;11.60;99.90
65770;DHT22;52512;47.650;8.578;2023-05-19T01:14:27;11.60;99.90
65770;DHT22;52512;47.650;8.578;2023-05-19T01:17:03;11.60;99.90
65770;DHT22;52512;47.650;8.578;2023-05-19T01:27:33;11.50;99.90
65770;DHT22;52512;47.650;8.578;2023-05-19T01:32:49;11.40;99.90
65770;DHT22;52512;47.650;8.578;2023-05-19T01:35:18;11.40;99.90
65770;DHT22;52512;47.650;8.578;2023-05-19T01:37:44;11.40;99.90
65770;DHT22;52512;47.650;8.578;2023-05-19T01:40:10;11.40;99.90
65770;DHT22;52512;47.650;8.578;2023-05-19T01:42:37;11.40;99.90
65770;DHT22;52512;47.650;8.578;2023-05-19T01:45:05;11.40;99.90
65770;DHT22;52512;47.650;8.578;2023-05-19T01:47:35;11.40;99.90
65770;DHT22;52512;47.650;8.578;2023-05-19T01:50:05;11.40;99.90
65770;DHT22;52512;47.650;8.578;2023-05-19T01:52:31;11.40;99.90
65770;DHT22;52512;47.650;8.578;2023-05-19T01:54:57;11.30;99.90
65770;DHT22;52512;47.650;8.578;2023-05-19T01:57:34;11.30;99.90
65770;DHT22;52512;47.650;8.578;2023-05-19T02:03:30;11.30;99.90
65770;DHT22;52512;47.650;8.578;2023-05-19T02:14:34;11.30;99.90
65770;DHT22;52512;47.650;8.578;2023-05-19T02:17:03;11.30;99.90
65770;DHT22;52512;47.650;8.578;2023-05-19T02:19:35;11.30;99.90
65770;DHT22;52512;47.650;8.578;2023-05-19T02:22:01;11.30;99.90
65770;DHT22;52512;47.650;8.578;2023-05-19T02:24:26;11.30;99.90
65770;DHT22;52512;47.650;8.578;2023-05-19T02:26:53;11.20;99.90
65770;DHT22;52512;47.650;8.578;2023-05-19T02:29:19;11.20;99.90
65770;DHT22;52512;47.650;8.578;2023-05-19T02:31:45;11.20;99.90
65770;DHT22;52512;47.650;8.578;2023-05-19T02:34:11;11.20;99.90
65770;DHT22;52512;47.650;8.578;2023-05-19T02:36:39;11.20;99.90
65770;DHT22;52512;47.650;8.578;2023-05-19T02:39:08;11.20;99.90
65770;DHT22;52512;47.650;8.578;2023-05-19T02:41:35;11.20;99.90
65770;DHT22;52512;47.650;8.578;2023-05-19T02:44:01;11.20;99.90
65770;DHT22;52512;47.650;8.578;2023-05-19T02:46:27;11.20;99.90
65770;DHT22;52512;47.650;8.578;2023-05-19T02:48:52;11.20;99.90
65770;DHT22;52512;47.650;8.578;2023-05-19T02:51:18;11.20;99.90
65770;DHT22;52512;47.650;8.578;2023-05-19T02:53:43;11.10;99.90
65770;DHT22;52512;47.650;8.578;2023-05-19T02:56:09;11.10;99.90
65770;DHT22;52512;47.650;8.578;2023-05-19T02:58:35;11.10;99.90
65770;DHT22;52512;47.650;8.578;2023-05-19T03:01:01;11.10;99.90
65770;DHT22;52512;47.650;8.578;2023-05-19T03:03:27;11.00;99.90
65770;DHT22;52512;47.650;8.578;2023-05-19T03:05:53;11.10;99.90
65770;DHT22;52512;47.650;8.578;2023-05-19T03:08:19;11.10;99.90
65770;DHT22;52512;47.650;8.578;2023-05-19T03:10:45;11.00;99.90
65770;DHT22;52512;47.650;8.578;2023-05-19T03:13:11;11.00;99.90
65770;DHT22;52512;47.650;8.578;2023-05-19T03:15:37;11.00;99.90
65770;DHT22;52512;47.650;8.578;2023-05-19T03:18:03;11.00;99.90
65770;DHT22;52512;47.650;8.578;2023-05-19T03:20:29;11.00;99.90
65770;DHT22;52512;47.650;8.578;2023-05-19T03:22:55;11.00;99.90
65770;DHT22;52512;47.650;8.578;2023-05-19T03:25:21;11.00;99.90
65770;DHT22;52512;47.650;8.578;2023-05-19T03:27:47;11.00;99.90
65770;DHT22;52512;47.650;8.578;2023-05-19T03:30:13;11.00;99.90
65770;DHT22;52512;47.650;8.578;2023-05-19T03:32:39;11.00;99.90
65770;DHT22;52512;47.650;8.578;2023-05-19T03:35:05;11.00;99.90
65770;DHT22;52512;47.650;8.578;2023-05-19T03:37:30;10.90;99.90
65770;DHT22;52512;47.650;8.578;2023-05-19T03:39:59;11.00;99.90
65770;DHT22;52512;47.650;8.578;2023-05-19T03:42:25;11.00;99.90
65770;DHT22;52512;47.650;8.578;2023-05-19T03:44:50;10.90;99.90
65770;DHT22;52512;47.650;8.578;2023-05-19T03:47:16;10.90;99.90
65770;DHT22;52512;47.650;8.578;2023-05-19T03:49:42;10.90;99.90
65770;DHT22;52512;47.650;8.578;2023-05-19T03:52:08;10.90;99.90
65770;DHT22;52512;47.650;8.578;2023-05-19T03:54:34;10.90;99.90
65770;DHT22;52512;47.650;8.578;2023-05-19T03:57:00;10.90;99.90
65770;DHT22;52512;47.650;8.578;2023-05-19T03:59:26;10.90;99.90
65770;DHT22;52512;47.650;8.578;2023-05-19T04:01:52;10.90;99.90
65770;DHT22;52512;47.650;8.578;2023-05-19T04:04:18;10.80;99.90
65770;DHT22;52512;47.650;8.578;2023-05-19T04:06:43;10.80;99.90
65770;DHT22;52512;47.650;8.578;2023-05-19T04:09:13;10.80;99.90
65770;DHT22;52512;47.650;8.578;2023-05-19T04:11:41;10.70;99.90
65770;DHT22;52512;47.650;8.578;2023-05-19T04:14:07;10.70;99.90
65770;DHT22;52512;47.650;8.578;2023-05-19T04:16:33;10.70;99.90
65770;DHT22;52512;47.650;8.578;2023-05-19T04:18:59;10.70;99.90
65770;DHT22;52512;47.650;8.578;2023-05-19T04:21:25;10.70;99.90
65770;DHT22;52512;47.650;8.578;2023-05-19T04:23:51;10.70;99.90
65770;DHT22;52512;47.650;8.578;2023-05-19T04:26:17;10.70;99.90
65770;DHT22;52512;47.650;8.578;2023-05-19T04:28:45;10.60;99.90
65770;DHT22;52512;47.650;8.578;2023-05-19T04:31:12;10.70;99.90
65770;DHT22;52512;47.650;8.578;2023-05-19T04:33:39;10.70;99.90
65770;DHT22;52512;47.650;8.578;2023-05-19T04:36:06;10.60;99.90
65770;DHT22;52512;47.650;8.578;2023-05-19T04:38:36;10.60;99.90
65770;DHT22;52512;47.650;8.578;2023-05-19T04:41:02;10.60;99.90
65770;DHT22;52512;47.650;8.578;2023-05-19T04:43:28;10.60;99.90
65770;DHT22;52512;47.650;8.578;2023-05-19T04:45:54;10.60;99.90
65770;DHT22;52512;47.650;8.578;2023-05-19T04:48:20;10.60;99.90
65770;DHT22;52512;47.650;8.578;2023-05-19T04:50:46;10.60;99.90
65770;DHT22;52512;47.650;8.578;2023-05-19T04:53:14;10.70;99.90
65770;DHT22;52512;47.650;8.578;2023-05-19T04:55:39;10.70;99.90
65770;DHT22;52512;47.650;8.578;2023-05-19T04:58:05;10.70;99.90
65770;DHT22;52512;47.650;8.578;2023-05-19T05:00:31;10.70;99.90
65770;DHT22;52512;47.650;8.578;2023-05-19T05:03:00;10.70;99.90
65770;DHT22;52512;47.650;8.578;2023-05-19T05:05:30;10.70;99.90
65770;DHT22;52512;47.650;8.578;2023-05-19T05:07:56;10.70;99.90
65770;DHT22;52512;47.650;8.578;2023-05-19T05:10:24;10.70;99.90
65770;DHT22;52512;47.650;8.578;2023-05-19T05:12:50;10.70;99.90
65770;DHT22;52512;47.650;8.578;2023-05-19T05:15:16;10.70;99.90
65770;DHT22;52512;47.650;8.578;2023-05-19T05:17:42;10.70;99.90
65770;DHT22;52512;47.650;8.578;2023-05-19T05:20:09;10.70;99.90
65770;DHT22;52512;47.650;8.578;2023-05-19T05:22:36;10.80;99.90
65770;DHT22;52512;47.650;8.578;2023-05-19T05:25:03;10.80;99.90
65770;DHT22;52512;47.650;8.578;2023-05-19T05:27:29;10.80;99.90
65770;DHT22;52512;47.650;8.578;2023-05-19T05:29:55;10.80;99.90
65770;DHT22;52512;47.650;8.578;2023-05-19T05:32:21;10.90;99.90
65770;DHT22;52512;47.650;8.578;2023-05-19T05:34:47;10.90;99.90
65770;DHT22;52512;47.650;8.578;2023-05-19T05:37:14;10.90;99.90
65770;DHT22;52512;47.650;8.578;2023-05-19T05:39:39;10.90;99.90
65770;DHT22;52512;47.650;8.578;2023-05-19T05:42:05;11.00;99.90
65770;DHT22;52512;47.650;8.578;2023-05-19T05:44:33;11.00;99.90
65770;DHT22;52512;47.650;8.578;2023-05-19T05:47:01;11.00;99.90
65770;DHT22;52512;47.650;8.578;2023-05-19T05:49:27;11.10;99.90
65770;DHT22;52512;47.650;8.578;2023-05-19T05:51:53;11.10;99.90
65770;DHT22;52512;47.650;8.578;2023-05-19T05:54:21;11.10;99.90
65770;DHT22;52512;47.650;8.578;2023-05-19T05:56:47;11.10;99.90
65770;DHT22;52512;47.650;8.578;2023-05-19T05:59:13;11.10;99.90
65770;DHT22;52512;47.650;8.578;2023-05-19T06:01:39;11.10;99.90
65770;DHT22;52512;47.650;8.578;2023-05-19T06:04:06;11.20;99.90
65770;DHT22;52512;47.650;8.578;2023-05-19T06:06:32;11.10;99.90
65770;DHT22;52512;47.650;8.578;2023-05-19T06:08:58;11.20;99.90
65770;DHT22;52512;47.650;8.578;2023-05-19T06:11:23;11.20;99.90
65770;DHT22;52512;47.650;8.578;2023-05-19T06:13:49;11.20;99.90
65770;DHT22;52512;47.650;8.578;2023-05-19T06:16:15;11.20;99.90
65770;DHT22;52512;47.650;8.578;2023-05-19T06:18:40;11.20;99.90
65770;DHT22;52512;47.650;8.578;2023-05-19T06:21:06;11.20;99.90
65770;DHT22;52512;47.650;8.578;2023-05-19T06:23:35;11.20;99.90
65770;DHT22;52512;47.650;8.578;2023-05-19T06:26:00;11.30;99.90
65770;DHT22;52512;47.650;8.578;2023-05-19T06:28:26;11.30;99.90
65770;DHT22;52512;47.650;8.578;2023-05-19T06:30:51;11.30;99.90
65770;DHT22;52512;47.650;8.578;2023-05-19T06:33:17;11.30;99.90
65770;DHT22;52512;47.650;8.578;2023-05-19T06:35:43;11.30;99.90
65770;DHT22;52512;47.650;8.578;2023-05-19T06:38:08;11.30;99.90
65770;DHT22;52512;47.650;8.578;2023-05-19T06:40:35;11.40;99.90
65770;DHT22;52512;47.650;8.578;2023-05-19T06:43:01;11.30;99.90
65770;DHT22;52512;47.650;8.578;2023-05-19T06:45:27;11.30;99.90
65770;DHT22;52512;47.650;8.578;2023-05-19T06:47:53;11.30;99.90
65770;DHT22;52512;47.650;8.578;2023-05-19T06:50:19;11.30;99.90
65770;DHT22;52512;47.650;8.578;2023-05-19T06:52:44;11.30;99.90
65770;DHT22;52512;47.650;8.578;2023-05-19T06:55:11;11.30;99.90
65770;DHT22;52512;47.650;8.578;2023-05-19T06:57:37;11.40;99.90
65770;DHT22;52512;47.650;8.578;2023-05-19T07:00:03;11.40;99.90
65770;DHT22;52512;47.650;8.578;2023-05-19T07:02:30;11.40;99.90
65770;DHT22;52512;47.650;8.578;2023-05-19T07:04:56;11.40;99.90
65770;DHT22;52512;47.650;8.578;2023-05-19T07:07:22;11.40;99.90
65770;DHT22;52512;47.650;8.578;2023-05-19T07:09:47;11.40;99.90
65770;DHT22;52512;47.650;8.578;2023-05-19T07:12:13;11.40;99.90
65770;DHT22;52512;47.650;8.578;2023-05-19T07:14:38;11.40;99.90
65770;DHT22;52512;47.650;8.578;2023-05-19T07:17:04;11.40;99.90
65770;DHT22;52512;47.650;8.578;2023-05-19T07:19:30;11.40;99.90
65770;DHT22;52512;47.650;8.578;2023-05-19T07:21:55;11.40;99.90
65770;DHT22;52512;47.650;8.578;2023-05-19T07:24:21;11.40;99.90
65770;DHT22;52512;47.650;8.578;2023-05-19T07:26:47;11.40;99.90
65770;DHT22;52512;47.650;8.578;2023-05-19T07:29:12;11.40;99.90
65770;DHT22;52512;47.650;8.578;2023-05-19T07:31:38;11.40;99.90
65770;DHT22;52512;47.650;8.578;2023-05-19T07:34:04;11.50;99.90
65770;DHT22;52512;47.650;8.578;2023-05-19T07:36:30;11.50;99.90
65770;DHT22;52512;47.650;8.578;2023-05-19T07:38:56;11.40;99.90
65770;DHT22;52512;47.650;8.578;2023-05-19T07:41:21;11.50;99.90
65770;DHT22;52512;47.650;8.578;2023-05-19T07:43:48;11.50;99.90
65770;DHT22;52512;47.650;8.578;2023-05-19T07:46:14;11.50;99.90
65770;DHT22;52512;47.650;8.578;2023-05-19T07:48:39;11.60;99.90
65770;DHT22;52512;47.650;8.578;2023-05-19T07:51:05;11.50;99.90
65770;DHT22;52512;47.650;8.578;2023-05-19T07:53:37;11.60;99.90
65770;DHT22;52512;47.650;8.578;2023-05-19T07:56:03;11.60;99.90
65770;DHT22;52512;47.650;8.578;2023-05-19T07:58:28;11.60;99.90
65770;DHT22;52512;47.650;8.578;2023-05-19T08:00:57;11.70;99.90
65770;DHT22;52512;47.650;8.578;2023-05-19T08:03:24;11.70;99.90
65770;DHT22;52512;47.650;8.578;2023-05-19T08:05:50;11.70;99.90
65770;DHT22;52512;47.650;8.578;2023-05-19T08:08:15;11.70;99.90
65770;DHT22;52512;47.650;8.578;2023-05-19T08:10:44;11.80;99.90
65770;DHT22;52512;47.650;8.578;2023-05-19T08:13:10;11.90;99.90
65770;DHT22;52512;47.650;8.578;2023-05-19T08:15:36;11.90;99.90
65770;DHT22;52512;47.650;8.578;2023-05-19T08:18:01;11.90;99.90
65770;DHT22;52512;47.650;8.578;2023-05-19T08:20:27;11.90;99.90
65770;DHT22;52512;47.650;8.578;2023-05-19T08:22:53;12.00;99.90
65770;DHT22;52512;47.650;8.578;2023-05-19T08:25:19;12.00;99.90
65770;DHT22;52512;47.650;8.578;2023-05-19T08:27:44;12.10;99.90
65770;DHT22;52512;47.650;8.578;2023-05-19T08:30:11;12.10;99.90
65770;DHT22;52512;47.650;8.578;2023-05-19T08:32:36;12.10;99.90
65770;DHT22;52512;47.650;8.578;2023-05-19T08:35:02;12.20;99.90
65770;DHT22;52512;47.650;8.578;2023-05-19T08:37:28;12.20;99.90
65770;DHT22;52512;47.650;8.578;2023-05-19T08:39:54;12.30;99.90
65770;DHT22;52512;47.650;8.578;2023-05-19T08:42:20;12.30;99.90
65770;DHT22;52512;47.650;8.578;2023-05-19T08:44:45;12.40;99.90
65770;DHT22;52512;47.650;8.578;2023-05-19T08:47:11;12.40;99.90
65770;DHT22;52512;47.650;8.578;2023-05-19T08:49:45;12.50;99.90
65770;DHT22;52512;47.650;8.578;2023-05-19T08:52:30;12.60;99.90
65770;DHT22;52512;47.650;8.578;2023-05-19T08:55:04;12.60;99.90
65770;DHT22;52512;47.650;8.578;2023-05-19T08:57:32;12.70;99.90
65770;DHT22;52512;47.650;8.578;2023-05-19T08:59:59;12.70;99.90
65770;DHT22;52512;47.650;8.578;2023-05-19T09:02:26;12.70;99.90
65770;DHT22;52512;47.650;8.578;2023-05-19T09:04:52;12.80;99.90
65770;DHT22;52512;47.650;8.578;2023-05-19T09:07:19;12.80;99.90
65770;DHT22;52512;47.650;8.578;2023-05-19T09:09:45;12.90;99.90
65770;DHT22;52512;47.650;8.578;2023-05-19T09:12:12;12.90;99.90
65770;DHT22;52512;47.650;8.578;2023-05-19T09:14:38;12.90;99.90
65770;DHT22;52512;47.650;8.578;2023-05-19T09:17:04;12.90;99.90
65770;DHT22;52512;47.650;8.578;2023-05-19T09:19:30;13.00;99.90
65770;DHT22;52512;47.650;8.578;2023-05-19T09:22:00;13.00;99.90
65770;DHT22;52512;47.650;8.578;2023-05-19T09:24:28;13.10;99.90
65770;DHT22;52512;47.650;8.578;2023-05-19T09:26:54;13.20;99.90
65770;DHT22;52512;47.650;8.578;2023-05-19T09:29:21;13.20;99.90
65770;DHT22;52512;47.650;8.578;2023-05-19T09:31:51;13.30;99.90
65770;DHT22;52512;47.650;8.578;2023-05-19T09:34:17;13.40;99.90
65770;DHT22;52512;47.650;8.578;2023-05-19T09:36:45;13.50;99.90
65770;DHT22;52512;47.650;8.578;2023-05-19T09:39:17;13.60;99.90
65770;DHT22;52512;47.650;8.578;2023-05-19T09:41:44;13.60;99.90
65770;DHT22;52512;47.650;8.578;2023-05-19T09:46:49;13.70;99.90
65770;DHT22;52512;47.650;8.578;2023-05-19T09:49:23;13.80;99.90
65770;DHT22;52512;47.650;8.578;2023-05-19T09:51:55;13.80;99.90
65770;DHT22;52512;47.650;8.578;2023-05-19T09:54:22;13.90;99.90
65770;DHT22;52512;47.650;8.578;2023-05-19T09:57:02;14.00;99.90
65770;DHT22;52512;47.650;8.578;2023-05-19T09:59:29;14.10;99.90
65770;DHT22;52512;47.650;8.578;2023-05-19T10:01:56;14.20;99.90
65770;DHT22;52512;47.650;8.578;2023-05-19T10:04:23;14.20;99.90
65770;DHT22;52512;47.650;8.578;2023-05-19T10:06:50;14.30;99.90
65770;DHT22;52512;47.650;8.578;2023-05-19T10:09:24;14.30;99.90
65770;DHT22;52512;47.650;8.578;2023-05-19T10:11:51;14.40;99.90
65770;DHT22;52512;47.650;8.578;2023-05-19T10:14:22;14.50;99.90
65770;DHT22;52512;47.650;8.578;2023-05-19T10:16:54;14.60;99.90
65770;DHT22;52512;47.650;8.578;2023-05-19T10:19:21;14.60;99.90
65770;DHT22;52512;47.650;8.578;2023-05-19T10:21:47;14.70;99.90
65770;DHT22;52512;47.650;8.578;2023-05-19T10:24:13;14.80;99.90
65770;DHT22;52512;47.650;8.578;2023-05-19T10:26:42;14.80;99.90
65770;DHT22;52512;47.650;8.578;2023-05-19T10:29:10;14.80;99.90
65770;DHT22;52512;47.650;8.578;2023-05-19T10:31:37;14.90;99.90
65770;DHT22;52512;47.650;8.578;2023-05-19T10:37:14;15.00;99.90
65770;DHT22;52512;47.650;8.578;2023-05-19T10:39:42;15.10;99.90
65770;DHT22;52512;47.650;8.578;2023-05-19T10:47:34;15.30;99.90
65770;DHT22;52512;47.650;8.578;2023-05-19T10:50:00;15.30;99.90
65770;DHT22;52512;47.650;8.578;2023-05-19T10:52:26;15.40;99.90
65770;DHT22;52512;47.650;8.578;2023-05-19T10:54:54;15.50;99.90
65770;DHT22;52512;47.650;8.578;2023-05-19T10:57:24;15.50;99.90
65770;DHT22;52512;47.650;8.578;2023-05-19T10:59:55;15.50;99.90
65770;DHT22;52512;47.650;8.578;2023-05-19T11:02:38;15.50;99.90
65770;DHT22;52512;47.650;8.578;2023-05-19T11:05:13;15.60;99.90
65770;DHT22;52512;47.650;8.578;2023-05-19T11:07:56;15.60;99.90
65770;DHT22;52512;47.650;8.578;2023-05-19T11:10:26;15.70;99.90
65770;DHT22;52512;47.650;8.578;2023-05-19T11:12:52;15.70;99.90
65770;DHT22;52512;47.650;8.578;2023-05-19T11:15:24;15.80;99.90
65770;DHT22;52512;47.650;8.578;2023-05-19T11:17:51;15.80;99.90
65770;DHT22;52512;47.650;8.578;2023-05-19T11:20:27;15.80;99.90
65770;DHT22;52512;47.650;8.578;2023-05-19T11:25:50;15.80;99.90
65770;DHT22;52512;47.650;8.578;2023-05-19T11:28:19;15.90;99.90
65770;DHT22;52512;47.650;8.578;2023-05-19T11:30:47;15.90;99.90
65770;DHT22;52512;47.650;8.578;2023-05-19T11:33:16;15.90;99.90
65770;DHT22;52512;47.650;8.578;2023-05-19T11:35:49;16.00;99.90
65770;DHT22;52512;47.650;8.578;2023-05-19T11:38:19;16.00;99.90
65770;DHT22;52512;47.650;8.578;2023-05-19T11:40:46;16.00;99.90
65770;DHT22;52512;47.650;8.578;2023-05-19T11:43:12;16.10;99.90
65770;DHT22;52512;47.650;8.578;2023-05-19T11:45:38;16.10;99.90
65770;DHT22;52512;47.650;8.578;2023-05-19T11:48:04;16.20;99.90
65770;DHT22;52512;47.650;8.578;2023-05-19T11:50:31;16.20;99.90
65770;DHT22;52512;47.650;8.578;2023-05-19T11:52:59;16.20;99.90
65770;DHT22;52512;47.650;8.578;2023-05-19T11:55:25;16.20;99.90
65770;DHT22;52512;47.650;8.578;2023-05-19T11:58:01;16.30;99.90
65770;DHT22;52512;47.650;8.578;2023-05-19T12:00:28;16.30;99.90
65770;DHT22;52512;47.650;8.578;2023-05-19T12:02:55;16.30;99.90
65770;DHT22;52512;47.650;8.578;2023-05-19T12:05:25;16.30;99.90
65770;DHT22;52512;47.650;8.578;2023-05-19T12:07:52;16.40;99.90
65770;DHT22;52512;47.650;8.578;2023-05-19T12:10:27;16.40;99.90
65770;DHT22;52512;47.650;8.578;2023-05-19T12:12:55;16.40;99.90
65770;DHT22;52512;47.650;8.578;2023-05-19T12:15:23;16.40;99.90
65770;DHT22;52512;47.650;8.578;2023-05-19T12:17:59;16.50;99.90
65770;DHT22;52512;47.650;8.578;2023-05-19T12:20:26;16.50;99.90
65770;DHT22;52512;47.650;8.578;2023-05-19T12:22:54;16.60;99.90
65770;DHT22;52512;47.650;8.578;2023-05-19T12:25:20;16.60;99.90
65770;DHT22;52512;47.650;8.578;2023-05-19T12:27:46;16.60;99.90
65770;DHT22;52512;47.650;8.578;2023-05-19T12:30:15;16.70;99.90
65770;DHT22;52512;47.650;8.578;2023-05-19T12:32:41;16.70;99.90
65770;DHT22;52512;47.650;8.578;2023-05-19T12:35:08;16.60;99.90
65770;DHT22;52512;47.650;8.578;2023-05-19T12:37:35;16.50;99.90
65770;DHT22;52512;47.650;8.578;2023-05-19T12:40:02;16.60;99.90
65770;DHT22;52512;47.650;8.578;2023-05-19T12:42:30;16.60;99.90
65770;DHT22;52512;47.650;8.578;2023-05-19T12:44:58;16.60;99.90
65770;DHT22;52512;47.650;8.578;2023-05-19T12:47:34;16.60;99.90
65770;DHT22;52512;47.650;8.578;2023-05-19T12:50:07;16.60;99.90
65770;DHT22;52512;47.650;8.578;2023-05-19T12:52:40;16.60;99.90
65770;DHT22;52512;47.650;8.578;2023-05-19T12:55:07;16.60;99.90
65770;DHT22;52512;47.650;8.578;2023-05-19T12:57:34;16.70;99.90
65770;DHT22;52512;47.650;8.578;2023-05-19T13:02:26;16.70;99.90
65770;DHT22;52512;47.650;8.578;2023-05-19T13:04:52;16.70;99.90
65770;DHT22;52512;47.650;8.578;2023-05-19T13:07:19;16.60;99.90
65770;DHT22;52512;47.650;8.578;2023-05-19T13:09:45;16.50;99.90
65770;DHT22;52512;47.650;8.578;2023-05-19T13:12:10;16.40;99.90
65770;DHT22;52512;47.650;8.578;2023-05-19T13:14:36;16.40;99.90
65770;DHT22;52512;47.650;8.578;2023-05-19T13:17:02;16.40;99.90
65770;DHT22;52512;47.650;8.578;2023-05-19T13:19:28;16.40;99.90
65770;DHT22;52512;47.650;8.578;2023-05-19T13:21:54;16.40;99.90
65770;DHT22;52512;47.650;8.578;2023-05-19T13:24:19;16.40;99.90
65770;DHT22;52512;47.650;8.578;2023-05-19T13:26:45;16.40;99.90
65770;DHT22;52512;47.650;8.578;2023-05-19T13:29:12;16.40;99.90
65770;DHT22;52512;47.650;8.578;2023-05-19T13:31:40;16.40;99.90
65770;DHT22;52512;47.650;8.578;2023-05-19T13:34:06;16.40;99.90
65770;DHT22;52512;47.650;8.578;2023-05-19T13:36:32;16.40;99.90
65770;DHT22;52512;47.650;8.578;2023-05-19T13:38:59;16.50;99.90
65770;DHT22;52512;47.650;8.578;2023-05-19T13:41:25;16.50;99.90
65770;DHT22;52512;47.650;8.578;2023-05-19T13:43:51;16.50;99.90
65770;DHT22;52512;47.650;8.578;2023-05-19T13:46:17;16.50;99.90
65770;DHT22;52512;47.650;8.578;2023-05-19T13:48:43;16.50;99.90
65770;DHT22;52512;47.650;8.578;2023-05-19T13:51:09;16.50;99.90
65770;DHT22;52512;47.650;8.578;2023-05-19T13:53:34;16.50;99.90
65770;DHT22;52512;47.650;8.578;2023-05-19T13:56:01;16.40;99.90
65770;DHT22;52512;47.650;8.578;2023-05-19T13:58:27;16.40;99.90
65770;DHT22;52512;47.650;8.578;2023-05-19T14:00:53;16.30;99.90
65770;DHT22;52512;47.650;8.578;2023-05-19T14:03:21;16.20;99.90
65770;DHT22;52512;47.650;8.578;2023-05-19T14:05:47;16.20;99.90
65770;DHT22;52512;47.650;8.578;2023-05-19T14:08:14;16.20;99.90
65770;DHT22;52512;47.650;8.578;2023-05-19T14:10:40;16.20;99.90
65770;DHT22;52512;47.650;8.578;2023-05-19T14:13:07;16.10;99.90
65770;DHT22;52512;47.650;8.578;2023-05-19T14:15:34;16.10;99.90
65770;DHT22;52512;47.650;8.578;2023-05-19T14:18:02;16.10;99.90
65770;DHT22;52512;47.650;8.578;2023-05-19T14:20:27;16.10;99.90
65770;DHT22;52512;47.650;8.578;2023-05-19T14:22:53;16.10;99.90
65770;DHT22;52512;47.650;8.578;2023-05-19T14:25:20;16.10;99.90
65770;DHT22;52512;47.650;8.578;2023-05-19T14:27:45;16.10;99.90
65770;DHT22;52512;47.650;8.578;2023-05-19T14:30:11;16.10;99.90
65770;DHT22;52512;47.650;8.578;2023-05-19T14:32:37;16.10;99.90
65770;DHT22;52512;47.650;8.578;2023-05-19T14:35:03;16.10;99.90
65770;DHT22;52512;47.650;8.578;2023-05-19T14:37:29;16.00;99.90
65770;DHT22;52512;47.650;8.578;2023-05-19T14:39:56;16.00;99.90
65770;DHT22;52512;47.650;8.578;2023-05-19T14:42:23;16.00;99.90
65770;DHT22;52512;47.650;8.578;2023-05-19T14:44:48;16.00;99.90
65770;DHT22;52512;47.650;8.578;2023-05-19T14:47:14;16.00;99.90
65770;DHT22;52512;47.650;8.578;2023-05-19T14:49:40;15.90;99.90
65770;DHT22;52512;47.650;8.578;2023-05-19T14:52:06;15.90;99.90
65770;DHT22;52512;47.650;8.578;2023-05-19T14:54:32;15.90;99.90
65770;DHT22;52512;47.650;8.578;2023-05-19T14:56:58;15.90;99.90
65770;DHT22;52512;47.650;8.578;2023-05-19T14:59:24;15.90;99.90
65770;DHT22;52512;47.650;8.578;2023-05-19T15:01:50;15.80;99.90
65770;DHT22;52512;47.650;8.578;2023-05-19T15:04:15;15.80;99.90
65770;DHT22;52512;47.650;8.578;2023-05-19T15:06:41;15.80;99.90
65770;DHT22;52512;47.650;8.578;2023-05-19T15:09:06;15.80;99.90
65770;DHT22;52512;47.650;8.578;2023-05-19T15:11:32;15.80;99.90
65770;DHT22;52512;47.650;8.578;2023-05-19T15:13:58;15.80;99.90
65770;DHT22;52512;47.650;8.578;2023-05-19T15:16:24;15.70;99.90
65770;DHT22;52512;47.650;8.578;2023-05-19T15:18:49;15.70;99.90
65770;DHT22;52512;47.650;8.578;2023-05-19T15:21:18;15.70;99.90
65770;DHT22;52512;47.650;8.578;2023-05-19T15:23:44;15.70;99.90
65770;DHT22;52512;47.650;8.578;2023-05-19T15:26:09;15.70;99.90
65770;DHT22;52512;47.650;8.578;2023-05-19T15:28:35;15.70;99.90
65770;DHT22;52512;47.650;8.578;2023-05-19T15:31:01;15.70;99.90
65770;DHT22;52512;47.650;8.578;2023-05-19T15:33:26;15.70;99.90
65770;DHT22;52512;47.650;8.578;2023-05-19T15:35:52;15.70;99.90
65770;DHT22;52512;47.650;8.578;2023-05-19T15:38:18;15.60;99.90
65770;DHT22;52512;47.650;8.578;2023-05-19T15:40:45;15.60;99.90
65770;DHT22;52512;47.650;8.578;2023-05-19T15:43:11;15.60;99.90
65770;DHT22;52512;47.650;8.578;2023-05-19T15:45:36;15.50;99.90
65770;DHT22;52512;47.650;8.578;2023-05-19T15:48:02;15.50;99.90
65770;DHT22;52512;47.650;8.578;2023-05-19T15:50:28;15.50;99.90
65770;DHT22;52512;47.650;8.578;2023-05-19T15:52:53;15.50;99.90
65770;DHT22;52512;47.650;8.578;2023-05-19T15:55:19;15.50;99.90
65770;DHT22;52512;47.650;8.578;2023-05-19T15:57:45;15.40;99.90
65770;DHT22;52512;47.650;8.578;2023-05-19T16:00:11;15.50;99.90
65770;DHT22;52512;47.650;8.578;2023-05-19T16:02:37;15.40;99.90
65770;DHT22;52512;47.650;8.578;2023-05-19T16:05:02;15.40;99.90
65770;DHT22;52512;47.650;8.578;2023-05-19T16:07:28;15.40;99.90